Time;durP1;ratioP1;P1;durP2;ratioP2;P2;SDS_P1;SDS_P2;PMS_P1;PMS_P2;Temp;Humidity;BMP_temperature;BMP_pressure;BME280_temperature;BME280_humidity;BME280_pressure;Samples;Min_cycle;Max_cycle;Signal;HPM_P1;HPM_P2
2021/12/24 00:00:15;;;;;;;11.70;6.55;;;1.20;80.70;;;;;;4176114;28;20040;-82
2021/12/24 00:02:16;;;;;;;10.85;6.45;;;1.20;80.60;;;;;;4163305;28;20158;-83
2021/12/24 00:04:16;;;;;;;14.50;6.88;;;1.20;80.50;;;;;;4167095;28;20029;-83
2021/12/24 00:06:17;;;;;;;11.73;6.40;;;1.30;80.60;;;;;;4180814;28;20062;-82
2021/12/24 00:08:18;;;;;;;11.15;6.38;;;1.30;80.50;;;;;;4164260;28;20478;-83
2021/12/24 00:10:18;;;;;;;14.15;6.50;;;1.30;80.40;;;;;;4172235;28;20099;-82
2021/12/24 00:12:21;;;;;;;12.52;7.03;;;1.30;80.30;;;;;;4160208;28;20072;-82
2021/12/24 00:14:23;;;;;;;11.90;6.75;;;1.40;80.30;;;;;;4161218;28;20025;-82
2021/12/24 00:16:25;;;;;;;10.90;6.10;;;1.30;80.10;;;;;;4161363;28;20072;-83
2021/12/24 00:23:21;;;;;;;10.60;6.10;;;1.40;79.80;;;;;;4173944;28;20026;-83
2021/12/24 00:36:51;;;;;;;11.10;6.35;;;1.40;79.30;;;;;;4176335;28;20031;-82
2021/12/24 00:38:52;;;;;;;8.77;5.85;;;1.40;79.30;;;;;;4173741;28;20025;-83
2021/12/24 00:40:55;;;;;;;12.95;6.80;;;1.40;79.30;;;;;;4143233;28;20401;-82
2021/12/24 00:42:56;;;;;;;11.18;6.75;;;1.40;79.30;;;;;;4176382;28;20032;-82
2021/12/24 00:44:56;;;;;;;12.23;6.68;;;1.40;79.20;;;;;;4140988;28;20404;-82
2021/12/24 00:46:57;;;;;;;14.02;6.95;;;1.40;79.20;;;;;;4161163;28;20430;-83
2021/12/24 00:49:00;;;;;;;11.88;6.93;;;1.40;79.10;;;;;;4179207;28;20113;-82
2021/12/24 00:53:03;;;;;;;12.68;7.57;;;1.40;79.00;;;;;;4160027;28;19912;-83
2021/12/24 00:55:06;;;;;;;13.05;6.93;;;1.40;78.80;;;;;;4179679;28;20491;-82
2021/12/24 00:57:06;;;;;;;11.48;7.45;;;1.30;78.80;;;;;;4159355;28;20026;-82
2021/12/24 00:59:07;;;;;;;13.85;7.47;;;1.40;78.80;;;;;;4182250;28;20029;-83
2021/12/24 01:01:10;;;;;;;12.68;7.13;;;1.30;78.80;;;;;;4152010;28;20126;-83
2021/12/24 01:03:10;;;;;;;12.63;6.97;;;1.30;78.80;;;;;;4159903;28;20049;-82
2021/12/24 01:05:11;;;;;;;12.90;7.57;;;1.30;78.90;;;;;;4161707;28;20033;-83
2021/12/24 01:07:12;;;;;;;18.40;9.52;;;1.20;78.90;;;;;;4159637;28;20588;-82
2021/12/24 01:09:13;;;;;;;17.80;9.40;;;1.30;79.10;;;;;;4179599;28;20068;-82
2021/12/24 01:11:13;;;;;;;21.13;10.88;;;1.30;79.10;;;;;;4159736;28;20034;-82
2021/12/24 01:13:14;;;;;;;20.13;9.70;;;1.20;79.20;;;;;;4154857;28;20458;-82
2021/12/24 01:15:15;;;;;;;19.90;9.15;;;1.20;79.40;;;;;;4164975;28;20029;-82
2021/12/24 01:17:38;;;;;;;17.73;9.52;;;1.30;79.50;;;;;;4145400;28;21239;-83
2021/12/24 01:19:41;;;;;;;18.55;9.88;;;1.20;79.50;;;;;;4178813;28;20025;-83
2021/12/24 01:24:02;;;;;;;18.88;10.02;;;1.20;79.60;;;;;;4147876;28;20028;-82
2021/12/24 01:26:13;;;;;;;19.83;9.95;;;1.20;79.70;;;;;;4161323;28;20030;-82
2021/12/24 01:43:47;;;;;;;26.77;11.73;;;1.20;80.00;;;;;;4163001;28;20071;-83
2021/12/24 01:45:49;;;;;;;24.73;11.73;;;1.20;80.10;;;;;;4150444;28;20746;-83
2021/12/24 01:47:52;;;;;;;26.43;12.07;;;1.20;80.10;;;;;;4167784;28;20168;-83
2021/12/24 01:49:52;;;;;;;30.40;13.47;;;1.20;80.20;;;;;;4180050;28;20370;-84
2021/12/24 01:51:53;;;;;;;27.60;12.50;;;1.30;80.40;;;;;;4180815;28;20398;-84
2021/12/24 01:53:54;;;;;;;28.67;12.35;;;1.20;80.40;;;;;;4177015;28;20021;-85
2021/12/24 01:55:55;;;;;;;30.15;13.75;;;1.30;80.50;;;;;;4180765;28;20196;-84
2021/12/24 01:57:56;;;;;;;29.75;13.88;;;1.30;80.60;;;;;;4161199;28;20033;-83
2021/12/24 01:59:56;;;;;;;31.95;13.73;;;1.40;80.70;;;;;;4178847;28;20013;-83
2021/12/24 02:01:57;;;;;;;31.75;14.50;;;1.40;80.80;;;;;;4163786;28;20465;-83
2021/12/24 02:03:57;;;;;;;32.08;15.23;;;1.40;80.80;;;;;;4152486;28;20075;-82
2021/12/24 02:05:58;;;;;;;30.88;15.45;;;1.30;80.70;;;;;;4179272;28;20411;-84
2021/12/24 02:07:59;;;;;;;26.60;13.88;;;1.40;80.90;;;;;;4180164;28;20037;-84
2021/12/24 02:10:00;;;;;;;29.88;14.73;;;1.40;80.80;;;;;;4187962;28;20045;-82
2021/12/24 02:12:01;;;;;;;26.38;13.40;;;1.50;80.90;;;;;;4179679;28;20095;-83
2021/12/24 02:14:03;;;;;;;29.20;14.65;;;1.50;80.90;;;;;;4188645;23;20045;-71
2021/12/24 02:16:15;;;;;;;29.48;14.57;;;1.40;80.80;;;;;;4162492;28;20037;-70
2021/12/24 02:29:44;;;;;;;26.35;13.75;;;1.50;80.80;;;;;;4149727;28;20028;-71
2021/12/24 02:31:44;;;;;;;28.35;14.52;;;1.50;80.80;;;;;;4158398;28;20127;-71
2021/12/24 02:33:45;;;;;;;31.92;15.75;;;1.50;80.70;;;;;;4162577;28;20040;-71
2021/12/24 02:35:46;;;;;;;30.02;15.05;;;1.50;80.70;;;;;;4157059;28;20405;-72
2021/12/24 02:37:47;;;;;;;27.02;15.63;;;1.50;80.60;;;;;;4153810;28;20033;-71
2021/12/24 02:39:47;;;;;;;31.85;16.52;;;1.50;80.70;;;;;;4152364;28;20029;-71
2021/12/24 02:41:48;;;;;;;30.23;16.38;;;1.60;80.60;;;;;;4152599;28;20712;-72
2021/12/24 02:43:49;;;;;;;30.40;16.65;;;1.60;80.50;;;;;;4168398;22;20030;-72
2021/12/24 02:45:53;;;;;;;34.88;17.60;;;1.60;80.50;;;;;;4142993;28;20061;-73
2021/12/24 02:54:24;;;;;;;34.25;18.05;;;1.60;81.10;;;;;;4157937;28;20037;-73
2021/12/24 02:56:31;;;;;;;32.20;16.88;;;1.60;80.30;;;;;;4165043;28;20033;-73
2021/12/24 02:58:42;;;;;;;36.20;18.08;;;1.60;80.30;;;;;;4125076;28;20089;-73
2021/12/24 03:00:43;;;;;;;31.63;17.20;;;1.60;80.30;;;;;;4157492;28;20021;-73
2021/12/24 03:02:44;;;;;;;33.45;17.40;;;1.60;80.30;;;;;;4156844;28;20037;-72
2021/12/24 03:04:44;;;;;;;30.67;17.35;;;1.60;80.30;;;;;;4158121;28;20022;-73
2021/12/24 03:06:48;;;;;;;32.13;17.30;;;1.60;80.30;;;;;;4137153;28;20053;-71
2021/12/24 03:08:48;;;;;;;;;;;1.60;80.30;;;;;;4163229;28;20585;-73
2021/12/24 03:10:49;;;;;;;35.47;17.70;;;1.60;80.40;;;;;;4160514;28;19909;-73
2021/12/24 03:12:51;;;;;;;34.47;18.15;;;1.70;80.40;;;;;;4160744;28;20025;-73
2021/12/24 03:14:52;;;;;;;33.45;17.75;;;1.70;80.30;;;;;;4158293;28;20029;-73
2021/12/24 03:16:58;;;;;;;35.65;18.85;;;1.60;80.20;;;;;;4164050;28;20063;-73
2021/12/24 03:18:59;;;;;;;36.35;18.02;;;1.60;80.10;;;;;;4156970;28;20032;-73
2021/12/24 03:21:23;;;;;;;36.70;18.73;;;1.70;80.20;;;;;;4159046;28;20044;-72
2021/12/24 03:23:35;;;;;;;37.33;17.52;;;1.70;80.10;;;;;;4157758;28;20135;-72
2021/12/24 03:25:36;;;;;;;40.33;19.40;;;1.70;80.10;;;;;;4129371;28;20033;-74
2021/12/24 03:27:36;;;;;;;39.22;20.67;;;1.70;80.10;;;;;;4157183;28;20451;-73
2021/12/24 03:29:37;;;;;;;45.75;21.75;;;1.70;80.20;;;;;;4161142;28;20029;-74
2021/12/24 03:31:38;;;;;;;44.92;22.88;;;1.70;79.90;;;;;;4164305;28;20025;-73
2021/12/24 03:33:39;;;;;;;44.03;21.92;;;1.70;79.80;;;;;;4157154;28;20424;-72
2021/12/24 03:35:40;;;;;;;42.60;19.98;;;1.70;79.70;;;;;;4156805;28;20181;-73
2021/12/24 03:37:40;;;;;;;39.65;20.60;;;1.70;79.70;;;;;;4151255;28;20021;-72
2021/12/24 03:39:41;;;;;;;45.38;21.88;;;1.70;79.70;;;;;;4155288;28;20049;-72
2021/12/24 03:41:42;;;;;;;42.40;21.85;;;1.70;79.70;;;;;;4159508;28;20041;-72
2021/12/24 03:43:43;;;;;;;47.45;23.40;;;1.70;79.60;;;;;;4153848;28;20068;-73
2021/12/24 03:48:01;;;;;;;44.00;20.75;;;1.70;79.60;;;;;;4172823;28;20032;-73
2021/12/24 03:50:08;;;;;;;43.17;20.33;;;1.70;79.60;;;;;;4134236;28;20042;-73
2021/12/24 03:56:38;;;;;;;41.95;20.92;;;1.60;79.60;;;;;;4158248;28;20444;-72
2021/12/24 03:58:39;;;;;;;42.80;19.95;;;1.70;79.80;;;;;;4154883;28;20021;-72
2021/12/24 04:00:40;;;;;;;40.75;20.13;;;1.60;79.70;;;;;;4158300;28;20031;-72
2021/12/24 04:02:40;;;;;;;47.65;22.25;;;1.60;79.60;;;;;;4159165;28;20037;-72
2021/12/24 04:04:41;;;;;;;49.05;22.40;;;1.70;79.50;;;;;;4161956;28;20022;-72
2021/12/24 04:06:42;;;;;;;52.30;24.15;;;1.60;79.30;;;;;;4160441;28;20455;-72
2021/12/24 04:08:43;;;;;;;57.50;24.05;;;1.60;79.20;;;;;;4158405;28;20034;-72
2021/12/24 04:10:43;;;;;;;61.70;25.67;;;1.50;79.10;;;;;;4154667;28;20032;-73
2021/12/24 04:12:44;;;;;;;58.20;25.33;;;1.50;79.10;;;;;;4156277;28;20083;-73
2021/12/24 04:14:45;;;;;;;60.53;25.63;;;1.50;79.00;;;;;;4162073;28;20021;-72
2021/12/24 04:16:45;;;;;;;57.35;23.60;;;1.40;79.10;;;;;;4157760;28;20025;-73
2021/12/24 04:25:26;;;;;;;57.05;24.92;;;1.30;79.40;;;;;;4158475;28;20079;-73
2021/12/24 04:27:28;;;;;;;54.35;24.23;;;1.20;79.50;;;;;;4155314;28;20041;-74
2021/12/24 04:29:29;;;;;;;59.47;25.17;;;1.20;79.60;;;;;;4153526;28;20042;-74
2021/12/24 04:31:40;;;;;;;56.17;23.15;;;1.10;79.60;;;;;;4155747;28;20547;-74
2021/12/24 04:33:46;;;;;;;51.17;23.55;;;1.10;79.80;;;;;;4157545;28;20061;-73
2021/12/24 04:35:58;;;;;;;55.15;23.88;;;1.10;79.90;;;;;;4154179;28;20041;-71
2021/12/24 04:51:47;;;;;;;61.67;22.95;;;0.80;80.60;;;;;;4157258;28;20022;-71
2021/12/24 05:05:07;;;;;;;62.72;25.30;;;0.60;81.10;;;;;;4163138;28;20026;-71
2021/12/24 05:07:19;;;;;;;59.25;25.70;;;0.60;81.30;;;;;;4159616;28;20045;-71
2021/12/24 05:09:23;;;;;;;61.28;26.83;;;0.60;81.40;;;;;;4160830;28;20115;-71
2021/12/24 05:11:24;;;;;;;66.15;27.48;;;0.50;81.40;;;;;;4160710;28;20063;-71
2021/12/24 05:13:25;;;;;;;66.07;27.75;;;0.50;82.30;;;;;;4156474;28;20087;-71
2021/12/24 05:15:27;;;;;;;64.90;26.50;;;0.50;81.70;;;;;;4164915;28;20155;-72
2021/12/24 05:17:44;;;;;;;61.83;25.63;;;0.50;81.70;;;;;;4160899;28;20030;-72
2021/12/24 05:22:04;;;;;;;73.55;29.90;;;0.50;81.80;;;;;;4157019;28;20084;-73
2021/12/24 05:24:12;;;;;;;64.55;28.38;;;0.40;81.80;;;;;;4163510;28;20443;-73
2021/12/24 05:26:14;;;;;;;57.47;24.35;;;0.40;81.80;;;;;;4163081;28;20106;-73
2021/12/24 05:28:15;;;;;;;48.42;21.90;;;0.40;81.90;;;;;;4161561;28;20045;-73
2021/12/24 05:30:15;;;;;;;52.30;22.75;;;0.40;81.90;;;;;;4164739;28;20021;-71
2021/12/24 05:32:16;;;;;;;58.15;26.42;;;0.40;81.90;;;;;;4148735;28;20101;-71
2021/12/24 05:34:18;;;;;;;54.80;24.15;;;0.40;81.90;;;;;;4159445;28;20472;-71
2021/12/24 05:36:18;;;;;;;58.13;24.15;;;0.40;81.90;;;;;;4155519;28;20029;-71
2021/12/24 05:38:19;;;;;;;51.22;24.05;;;0.30;81.90;;;;;;4158633;28;20036;-71
2021/12/24 05:40:20;;;;;;;53.35;24.05;;;0.40;81.90;;;;;;4163577;28;20527;-70
2021/12/24 05:42:22;;;;;;;53.22;23.38;;;0.40;81.90;;;;;;4161737;28;20463;-70
2021/12/24 05:44:23;;;;;;;56.08;24.17;;;0.40;81.90;;;;;;4175393;28;20101;-71
2021/12/24 05:46:24;;;;;;;58.05;25.15;;;0.40;81.90;;;;;;4157705;28;20036;-71
2021/12/24 05:48:25;;;;;;;58.15;25.60;;;0.40;81.90;;;;;;4161892;28;20060;-71
2021/12/24 05:50:26;;;;;;;52.28;23.55;;;0.40;81.80;;;;;;4160021;28;20033;-71
2021/12/24 05:52:27;;;;;;;60.15;26.45;;;0.40;81.80;;;;;;4159230;28;20059;-69
2021/12/24 05:54:27;;;;;;;63.00;26.52;;;0.40;81.80;;;;;;4156080;28;20045;-72
2021/12/24 05:56:28;;;;;;;61.63;26.48;;;0.40;81.80;;;;;;4159429;28;20045;-72
2021/12/24 05:58:29;;;;;;;59.22;25.60;;;0.40;81.80;;;;;;4159352;28;20533;-73
2021/12/24 06:00:29;;;;;;;63.72;26.38;;;0.40;81.90;;;;;;4165715;28;20025;-74
2021/12/24 06:02:30;;;;;;;64.30;27.42;;;0.40;81.80;;;;;;4161165;28;20644;-74
2021/12/24 06:04:31;;;;;;;62.13;26.20;;;0.40;81.90;;;;;;4159995;28;20428;-74
2021/12/24 06:06:32;;;;;;;56.60;23.20;;;0.30;81.80;;;;;;4162511;28;20108;-74
2021/12/24 06:08:32;;;;;;;62.03;25.60;;;0.40;81.80;;;;;;4157172;28;20129;-74
2021/12/24 06:10:33;;;;;;;52.10;23.23;;;0.40;81.80;;;;;;4159312;28;20022;-74
2021/12/24 06:12:34;;;;;;;54.17;23.40;;;0.40;81.80;;;;;;4159602;28;20056;-75
2021/12/24 06:14:35;;;;;;;55.47;22.63;;;0.40;81.80;;;;;;4159012;28;20041;-75
2021/12/24 06:16:36;;;;;;;54.65;23.10;;;0.40;81.70;;;;;;4158711;28;20101;-75
2021/12/24 06:18:40;;;;;;;55.33;22.13;;;0.50;81.70;;;;;;4140222;28;20514;-74
2021/12/24 06:20:41;;;;;;;57.28;22.95;;;0.40;81.60;;;;;;4161145;28;20476;-73
2021/12/24 06:22:42;;;;;;;52.28;21.65;;;0.50;81.60;;;;;;4159196;28;20060;-74
2021/12/24 06:24:42;;;;;;;46.15;21.45;;;0.50;81.60;;;;;;4156798;28;20026;-73
2021/12/24 06:26:43;;;;;;;45.97;20.25;;;0.50;81.40;;;;;;4157340;28;20506;-73
2021/12/24 06:28:44;;;;;;;51.58;21.48;;;0.50;81.30;;;;;;4157252;28;20025;-73
2021/12/24 06:30:45;;;;;;;56.00;22.35;;;0.50;81.20;;;;;;4154582;28;20041;-76
2021/12/24 06:32:45;;;;;;;53.20;22.05;;;0.50;81.10;;;;;;4158333;28;20419;-74
2021/12/24 06:34:48;;;;;;;48.38;20.27;;;0.50;81.00;;;;;;4158042;28;20030;-76
2021/12/24 06:36:51;;;;;;;49.53;20.48;;;0.60;81.00;;;;;;4139639;28;20029;-75
2021/12/24 06:38:52;;;;;;;54.63;21.50;;;0.60;81.00;;;;;;4155646;28;20037;-76
2021/12/24 06:40:53;;;;;;;49.17;20.13;;;0.60;80.90;;;;;;4154442;28;20040;-76
2021/12/24 06:42:53;;;;;;;46.00;20.50;;;0.60;80.90;;;;;;4151111;28;20040;-75
2021/12/24 06:44:54;;;;;;;45.28;19.48;;;0.60;80.80;;;;;;4171318;28;20336;-71
2021/12/24 06:46:55;;;;;;;48.72;20.15;;;0.60;80.80;;;;;;4153094;28;20448;-76
2021/12/24 06:48:56;;;;;;;48.35;20.27;;;0.60;80.70;;;;;;4140350;28;20026;-76
2021/12/24 06:50:57;;;;;;;52.90;21.30;;;0.60;80.70;;;;;;4153092;28;20033;-76
2021/12/24 06:52:57;;;;;;;54.58;21.27;;;0.60;80.60;;;;;;4154432;28;20040;-76
2021/12/24 06:54:58;;;;;;;55.55;21.92;;;0.60;80.60;;;;;;4155161;28;20532;-76
2021/12/24 06:56:59;;;;;;;56.22;22.08;;;0.60;80.50;;;;;;4143039;28;20034;-75
2021/12/24 06:59:00;;;;;;;61.17;23.00;;;0.60;80.50;;;;;;4149165;28;20392;-74
2021/12/24 07:01:01;;;;;;;63.58;24.35;;;0.60;80.50;;;;;;4151814;28;20029;-74
2021/12/24 07:03:02;;;;;;;55.88;22.08;;;0.60;80.50;;;;;;4155707;28;20110;-74
2021/12/24 07:05:03;;;;;;;60.85;23.58;;;0.60;80.60;;;;;;4158317;28;20037;-74
2021/12/24 07:07:04;;;;;;;59.58;23.83;;;0.60;80.60;;;;;;4154496;28;20382;-74
2021/12/24 07:09:04;;;;;;;65.15;24.60;;;0.60;80.60;;;;;;4155355;28;20032;-74
2021/12/24 07:11:05;;;;;;;55.10;22.02;;;0.60;80.60;;;;;;4159653;28;20064;-74
2021/12/24 07:13:06;;;;;;;57.20;24.02;;;0.60;81.30;;;;;;4155157;28;20052;-74
2021/12/24 07:15:07;;;;;;;60.00;22.65;;;0.70;80.70;;;;;;4158023;28;20058;-74
2021/12/24 07:17:08;;;;;;;58.92;23.83;;;0.60;80.60;;;;;;4156797;28;20366;-74
2021/12/24 07:19:09;;;;;;;58.13;23.80;;;0.60;80.50;;;;;;4156959;28;20029;-74
2021/12/24 07:21:10;;;;;;;60.97;22.98;;;0.60;80.50;;;;;;4157535;28;20049;-75
2021/12/24 07:23:10;;;;;;;63.28;23.23;;;0.60;80.40;;;;;;4146050;28;20484;-75
2021/12/24 07:25:11;;;;;;;63.83;24.70;;;0.60;80.40;;;;;;4138310;28;20022;-74
2021/12/24 07:27:12;;;;;;;74.57;25.67;;;0.60;80.40;;;;;;4157077;28;20167;-74
2021/12/24 07:29:12;;;;;;;62.00;23.30;;;0.60;80.40;;;;;;4151243;28;20109;-74
2021/12/24 07:31:14;;;;;;;67.80;25.95;;;0.60;80.40;;;;;;4155858;28;20025;-74
2021/12/24 07:33:14;;;;;;;63.38;23.63;;;0.50;80.50;;;;;;4156907;28;20527;-74
2021/12/24 07:35:15;;;;;;;74.40;26.05;;;0.50;80.60;;;;;;4145018;28;20270;-74
2021/12/24 07:37:16;;;;;;;62.65;25.95;;;0.50;80.60;;;;;;4159046;28;20047;-74
2021/12/24 07:39:16;;;;;;;73.82;25.80;;;0.50;80.60;;;;;;4140253;28;20026;-75
2021/12/24 07:41:18;;;;;;;66.47;25.80;;;0.40;80.70;;;;;;4163471;28;20085;-74
2021/12/24 07:43:19;;;;;;;67.15;25.23;;;0.40;80.70;;;;;;4156419;28;20064;-75
2021/12/24 07:45:19;;;;;;;73.90;26.30;;;0.40;80.80;;;;;;4156907;28;20636;-74
2021/12/24 07:47:27;;;;;;;65.05;24.02;;;0.40;80.90;;;;;;4161183;28;20061;-74
2021/12/24 07:53:47;;;;;;;69.93;24.45;;;0.30;81.60;;;;;;4154852;28;20037;-75
2021/12/24 07:55:48;;;;;;;66.10;23.58;;;0.30;81.20;;;;;;4158679;28;20105;-74
2021/12/24 07:57:51;;;;;;;59.65;22.40;;;0.30;81.30;;;;;;4150801;28;20464;-74
2021/12/24 07:59:52;;;;;;;67.68;25.20;;;0.30;81.30;;;;;;4153654;28;20280;-75
2021/12/24 08:01:53;;;;;;;69.45;24.60;;;0.30;81.40;;;;;;4155393;28;20064;-74
2021/12/24 08:03:55;;;;;;;62.92;23.85;;;0.30;81.50;;;;;;4135467;28;20034;-74
2021/12/24 08:05:55;;;;;;;59.50;22.60;;;0.30;81.60;;;;;;4149606;28;20013;-74
2021/12/24 08:07:56;;;;;;;61.15;22.90;;;0.30;81.60;;;;;;4156329;28;20071;-74
2021/12/24 08:09:56;;;;;;;66.82;24.13;;;0.30;81.60;;;;;;4140134;28;20620;-73
2021/12/24 08:11:57;;;;;;;60.42;22.80;;;0.30;81.70;;;;;;4149501;28;20038;-74
2021/12/24 08:13:58;;;;;;;63.65;22.75;;;0.30;81.70;;;;;;4135596;28;20505;-74
2021/12/24 08:16:00;;;;;;;60.95;22.63;;;0.30;81.70;;;;;;4135126;28;20457;-74
2021/12/24 08:18:01;;;;;;;68.47;22.75;;;0.30;81.70;;;;;;4149187;28;20057;-74
2021/12/24 08:20:01;;;;;;;62.47;23.23;;;0.40;81.70;;;;;;4153154;28;20041;-74
2021/12/24 08:22:02;;;;;;;65.65;22.85;;;0.30;81.70;;;;;;4153370;28;20554;-74
2021/12/24 08:24:03;;;;;;;58.85;21.13;;;0.40;81.80;;;;;;4155721;28;20100;-74
2021/12/24 08:26:04;;;;;;;59.75;21.95;;;0.30;81.70;;;;;;4155994;28;20033;-74
2021/12/24 08:28:05;;;;;;;62.42;23.25;;;0.30;82.50;;;;;;4153360;28;20064;-74
2021/12/24 08:30:06;;;;;;;62.92;23.27;;;0.30;81.80;;;;;;4155849;28;20083;-73
2021/12/24 08:32:08;;;;;;;60.88;22.08;;;0.30;81.90;;;;;;4138029;28;20825;-74
2021/12/24 08:34:10;;;;;;;55.95;19.58;;;0.30;81.90;;;;;;4137136;28;20139;-74
2021/12/24 08:36:11;;;;;;;64.97;23.83;;;0.30;82.00;;;;;;4166073;28;20063;-74
2021/12/24 08:38:13;;;;;;;59.78;22.13;;;0.30;81.90;;;;;;4157494;28;20057;-74
2021/12/24 08:40:13;;;;;;;59.35;20.98;;;0.30;82.10;;;;;;4146789;28;20042;-74
2021/12/24 08:42:15;;;;;;;60.22;21.63;;;0.30;82.20;;;;;;4162479;28;20046;-74
2021/12/24 08:44:16;;;;;;;67.15;25.42;;;0.30;82.20;;;;;;4153402;28;20465;-74
2021/12/24 08:46:16;;;;;;;53.45;20.60;;;0.30;82.30;;;;;;4141398;23;20054;-83
2021/12/24 08:48:17;;;;;;;50.85;20.45;;;0.30;82.40;;;;;;4129105;28;20031;-83
2021/12/24 08:50:18;;;;;;;53.22;21.60;;;0.30;82.30;;;;;;4134506;28;20038;-83
2021/12/24 08:52:18;;;;;;;45.38;18.13;;;0.30;82.40;;;;;;4159689;28;20025;-83
2021/12/24 08:54:21;;;;;;;44.90;16.65;;;0.30;82.40;;;;;;4120062;28;20042;-83
2021/12/24 08:56:22;;;;;;;50.25;17.40;;;0.30;82.50;;;;;;4124745;28;20034;-83
2021/12/24 08:58:23;;;;;;;46.90;18.55;;;0.40;83.20;;;;;;4110318;28;20409;-83
2021/12/24 09:00:24;;;;;;;49.83;18.08;;;0.40;82.50;;;;;;4107858;28;20033;-83
2021/12/24 09:02:24;;;;;;;53.30;17.80;;;0.40;82.50;;;;;;4128382;28;20731;-83
2021/12/24 09:04:25;;;;;;;44.60;16.90;;;0.40;82.40;;;;;;4110800;28;20051;-82
2021/12/24 09:06:25;;;;;;;48.03;16.85;;;0.50;82.40;;;;;;4096986;28;20146;-83
2021/12/24 09:08:26;;;;;;;47.17;16.42;;;0.40;82.30;;;;;;4141890;28;20034;-83
2021/12/24 09:10:27;;;;;;;42.60;16.38;;;0.50;82.30;;;;;;4124168;28;20030;-83
2021/12/24 09:12:27;;;;;;;42.15;17.45;;;0.60;82.30;;;;;;4112649;28;20034;-83
2021/12/24 09:14:28;;;;;;;45.65;15.95;;;0.60;82.30;;;;;;4110688;28;20377;-83
2021/12/24 09:16:29;;;;;;;49.15;18.13;;;0.60;83.00;;;;;;4109366;28;20441;-83
2021/12/24 09:18:29;;;;;;;51.75;21.00;;;0.70;82.30;;;;;;4130106;28;20022;-83
2021/12/24 09:20:35;;;;;;;54.17;21.83;;;0.70;82.20;;;;;;4128064;28;20049;-83
2021/12/24 09:22:38;;;;;;;42.47;20.35;;;0.70;82.20;;;;;;4114529;28;20513;-83
2021/12/24 09:24:38;;;;;;;43.45;16.70;;;0.80;82.20;;;;;;4076303;28;20023;-83
2021/12/24 09:26:39;;;;;;;43.60;16.85;;;0.80;82.30;;;;;;4138547;28;20097;-83
2021/12/24 09:28:39;;;;;;;35.55;15.70;;;0.80;82.30;;;;;;4127749;28;21816;-83
2021/12/24 09:30:40;;;;;;;43.60;17.23;;;0.80;82.40;;;;;;4127638;28;20077;-83
2021/12/24 09:32:41;;;;;;;41.22;16.42;;;0.90;82.50;;;;;;4125404;28;20038;-83
2021/12/24 09:34:42;;;;;;;38.80;16.55;;;0.90;82.50;;;;;;4126107;28;20019;-83
2021/12/24 09:36:44;;;;;;;42.03;15.90;;;0.90;82.50;;;;;;4125894;28;20065;-83
2021/12/24 09:38:45;;;;;;;41.58;16.88;;;0.90;82.40;;;;;;4125043;28;20027;-83
2021/12/24 09:40:45;;;;;;;37.92;14.77;;;0.90;82.30;;;;;;4128098;28;20144;-83
2021/12/24 09:42:46;;;;;;;36.25;15.27;;;1.00;82.50;;;;;;4127553;28;20030;-81
2021/12/24 09:44:47;;;;;;;41.42;16.05;;;1.00;82.40;;;;;;4127153;28;20073;-82
2021/12/24 09:46:47;;;;;;;40.38;15.43;;;1.00;82.30;;;;;;4141463;28;20030;-82
2021/12/24 09:48:48;;;;;;;39.15;15.10;;;1.10;82.40;;;;;;4143140;28;20022;-82
2021/12/24 09:50:49;;;;;;;38.28;15.23;;;1.00;82.10;;;;;;4141637;28;20041;-83
2021/12/24 09:52:50;;;;;;;39.25;16.70;;;1.10;82.20;;;;;;4127448;28;20412;-83
2021/12/24 09:54:51;;;;;;;30.73;12.93;;;1.10;81.80;;;;;;4126834;28;20037;-83
2021/12/24 09:56:53;;;;;;;30.80;12.77;;;1.10;81.60;;;;;;4141822;28;20113;-83
2021/12/24 09:58:54;;;;;;;37.55;13.57;;;1.10;82.10;;;;;;4126864;28;20050;-83
2021/12/24 10:00:55;;;;;;;29.00;11.63;;;1.10;81.00;;;;;;4124631;28;20031;-84
2021/12/24 10:02:57;;;;;;;38.35;14.70;;;1.10;81.00;;;;;;4127816;28;20121;-84
2021/12/24 10:04:57;;;;;;;32.35;12.00;;;1.10;80.70;;;;;;4127676;28;20112;-83
2021/12/24 10:07:06;;;;;;;33.20;13.80;;;1.10;80.50;;;;;;4124073;28;20125;-83
2021/12/24 10:09:08;;;;;;;31.30;12.30;;;1.10;80.20;;;;;;4128018;28;20030;-83
2021/12/24 10:11:12;;;;;;;26.65;11.63;;;1.10;80.30;;;;;;4126026;28;20037;-84
2021/12/24 10:13:29;;;;;;;;;;;1.10;80.10;;;;;;4127318;28;20639;-83
2021/12/24 10:15:30;;;;;;;28.20;11.65;;;1.10;80.10;;;;;;4142850;28;19920;-84
2021/12/24 10:17:32;;;;;;;34.20;11.25;;;1.10;79.70;;;;;;4129952;28;20036;-83
2021/12/24 10:19:46;;;;;;;25.52;9.90;;;1.10;79.40;;;;;;4144136;28;20034;-83
2021/12/24 10:21:47;;;;;;;;;;;1.10;79.50;;;;;;4129944;28;20548;-83
2021/12/24 10:23:55;;;;;;;25.92;10.73;;;1.00;79.20;;;;;;4126893;28;19909;-83
2021/12/24 10:25:59;;;;;;;32.50;11.07;;;1.10;79.40;;;;;;4140826;28;20049;-83
2021/12/24 10:28:09;;;;;;;25.55;9.70;;;1.10;80.00;;;;;;4112036;28;20130;-83
2021/12/24 10:30:23;;;;;;;25.58;9.52;;;1.00;79.20;;;;;;4124555;28;20031;-83
2021/12/24 10:32:24;;;;;;;23.52;8.45;;;1.10;79.30;;;;;;4141624;28;20033;-83
2021/12/24 10:34:31;;;;;;;19.50;8.18;;;1.10;79.30;;;;;;4109583;28;20693;-83
2021/12/24 10:36:31;;;;;;;22.10;8.60;;;1.10;79.40;;;;;;4126077;28;20038;-83
2021/12/24 10:38:32;;;;;;;20.95;7.35;;;1.10;79.20;;;;;;4100955;28;20035;-83
2021/12/24 10:40:33;;;;;;;23.20;7.90;;;1.10;79.10;;;;;;4127485;28;20022;-83
2021/12/24 10:42:40;;;;;;;18.65;7.53;;;1.20;79.80;;;;;;4127380;28;20030;-83
2021/12/24 10:44:42;;;;;;;16.95;7.13;;;1.10;78.90;;;;;;4127721;28;20070;-83
2021/12/24 10:47:01;;;;;;;21.88;7.57;;;1.10;78.90;;;;;;4127822;28;20045;-83
2021/12/24 10:49:08;;;;;;;19.65;7.90;;;1.20;78.60;;;;;;4124456;28;20473;-83
2021/12/24 10:51:19;;;;;;;15.85;7.50;;;1.20;78.30;;;;;;4123663;28;20038;-83
2021/12/24 10:53:31;;;;;;;17.85;7.35;;;1.10;78.20;;;;;;4125165;28;20046;-83
2021/12/24 10:55:36;;;;;;;21.30;7.00;;;1.20;78.40;;;;;;4143958;28;20037;-83
2021/12/24 10:57:38;;;;;;;17.20;5.78;;;1.20;78.40;;;;;;4132929;28;20096;-83
2021/12/24 10:59:39;;;;;;;16.48;5.90;;;1.20;78.40;;;;;;4125779;28;20049;-83
2021/12/24 11:01:40;;;;;;;18.85;5.93;;;1.20;78.30;;;;;;4126320;28;20030;-83
2021/12/24 11:03:43;;;;;;;13.50;5.28;;;1.20;78.20;;;;;;4128188;28;20022;-83
2021/12/24 11:05:45;;;;;;;15.13;4.22;;;1.20;78.00;;;;;;4142675;28;20241;-84
2021/12/24 11:07:45;;;;;;;10.13;3.88;;;1.20;77.90;;;;;;4129096;28;20058;-84
2021/12/24 11:10:05;;;;;;;8.65;3.85;;;1.20;78.00;;;;;;4128008;28;21777;-84
2021/12/24 11:12:07;;;;;;;9.75;2.72;;;1.20;77.90;;;;;;4129970;28;20030;-84
2021/12/24 11:14:18;;;;;;;9.30;2.25;;;1.20;77.80;;;;;;4098595;28;20028;-84
2021/12/24 11:16:22;;;;;;;7.05;2.22;;;1.20;77.80;;;;;;4113749;28;20042;-84
2021/12/24 11:18:24;;;;;;;6.22;1.63;;;1.30;77.80;;;;;;4126770;28;20042;-84
2021/12/24 11:20:25;;;;;;;4.85;1.65;;;1.30;77.50;;;;;;4127047;28;20026;-83
2021/12/24 11:22:25;;;;;;;4.70;1.70;;;1.30;77.40;;;;;;4124182;28;20036;-83
2021/12/24 11:24:26;;;;;;;6.47;1.80;;;1.40;76.90;;;;;;4127573;28;20034;-84
2021/12/24 11:26:34;;;;;;;4.60;1.38;;;1.30;76.80;;;;;;4124466;28;20035;-84
2021/12/24 11:28:35;;;;;;;5.55;1.20;;;1.30;76.60;;;;;;4124775;28;20089;-83
2021/12/24 11:30:44;;;;;;;5.60;1.25;;;1.20;76.30;;;;;;4124359;28;20027;-83
2021/12/24 11:32:45;;;;;;;3.55;1.25;;;1.20;76.10;;;;;;4123535;28;20610;-83
2021/12/24 11:34:45;;;;;;;6.07;1.05;;;1.20;76.40;;;;;;4107889;28;20030;-83
2021/12/24 11:36:46;;;;;;;8.13;0.98;;;1.20;76.50;;;;;;4107837;28;20118;-83
2021/12/24 11:38:52;;;;;;;7.93;1.30;;;1.20;76.40;;;;;;4125316;28;20037;-84
2021/12/24 11:40:53;;;;;;;4.68;1.33;;;1.20;76.20;;;;;;4140531;28;20061;-83
2021/12/24 11:43:04;;;;;;;2.25;1.40;;;1.20;76.10;;;;;;4140596;28;20433;-84
2021/12/24 11:45:04;;;;;;;8.82;0.95;;;1.10;75.60;;;;;;4128061;28;20515;-83
2021/12/24 11:47:05;;;;;;;11.82;1.23;;;1.10;75.70;;;;;;4120630;28;20034;-83
2021/12/24 11:49:06;;;;;;;6.30;1.00;;;1.20;75.50;;;;;;4124038;28;20377;-83
2021/12/24 11:51:18;;;;;;;5.15;0.70;;;1.10;75.90;;;;;;4107294;28;20106;-83
2021/12/24 11:53:18;;;;;;;5.65;0.85;;;1.20;75.10;;;;;;4110378;28;20022;-83
2021/12/24 11:55:20;;;;;;;5.68;0.90;;;1.20;74.80;;;;;;4110639;28;20078;-83
2021/12/24 11:57:22;;;;;;;9.32;1.17;;;1.10;74.30;;;;;;4109066;28;20109;-83
2021/12/24 11:59:39;;;;;;;7.35;0.77;;;1.20;74.20;;;;;;4140352;28;20025;-84
2021/12/24 12:01:41;;;;;;;6.00;0.80;;;1.20;73.60;;;;;;4124803;28;20110;-83
2021/12/24 12:03:49;;;;;;;9.55;1.05;;;1.10;73.10;;;;;;4139213;28;20053;-83
2021/12/24 12:05:50;;;;;;;5.32;0.70;;;1.10;72.80;;;;;;4127134;28;20034;-84
2021/12/24 12:07:50;;;;;;;6.50;0.82;;;1.10;72.40;;;;;;4127402;28;20037;-84
2021/12/24 12:09:51;;;;;;;4.72;0.90;;;1.10;72.20;;;;;;4125408;28;20042;-83